sensor_id;sensor_type;location;lat;lon;timestamp;pressure;altitude;pressure_sealevel;temperature;humidity
21826;BME280;11075;47.944;11.776;2023-01-28T00:01:53;95007.31;;;6.40;22.30
21826;BME280;11075;47.944;11.776;2023-01-28T00:04:19;95014.03;;;7.26;21.24
21826;BME280;11075;47.944;11.776;2023-01-28T00:06:46;95019.53;;;6.99;21.57
21826;BME280;11075;47.944;11.776;2023-01-28T00:09:13;95020.03;;;6.07;22.23
21826;BME280;11075;47.944;11.776;2023-01-28T00:11:40;95022.66;;;6.34;21.92
21826;BME280;11075;47.944;11.776;2023-01-28T00:14:10;95018.31;;;5.75;22.60
21826;BME280;11075;47.944;11.776;2023-01-28T00:16:38;95010.31;;;6.11;22.33
21826;BME280;11075;47.944;11.776;2023-01-28T00:19:05;95017.53;;;6.60;21.42
21826;BME280;11075;47.944;11.776;2023-01-28T00:21:31;95016.69;;;6.73;21.87
21826;BME280;11075;47.944;11.776;2023-01-28T00:23:58;95000.94;;;4.52;24.46
21826;BME280;11075;47.944;11.776;2023-01-28T00:26:25;95001.53;;;5.96;22.84
21826;BME280;11075;47.944;11.776;2023-01-28T00:28:53;95004.44;;;5.59;22.84
21826;BME280;11075;47.944;11.776;2023-01-28T00:31:22;95016.22;;;6.35;22.01
21826;BME280;11075;47.944;11.776;2023-01-28T00:33:50;95008.56;;;6.06;22.63
21826;BME280;11075;47.944;11.776;2023-01-28T00:36:18;95017.59;;;6.32;22.37
21826;BME280;11075;47.944;11.776;2023-01-28T00:38:55;95021.63;;;5.39;22.95
21826;BME280;11075;47.944;11.776;2023-01-28T00:41:24;95012.06;;;5.52;22.98
21826;BME280;11075;47.944;11.776;2023-01-28T00:43:52;95020.06;;;5.93;22.15
21826;BME280;11075;47.944;11.776;2023-01-28T00:46:21;95013.06;;;7.00;21.66
21826;BME280;11075;47.944;11.776;2023-01-28T00:48:48;95013.91;;;7.09;21.73
21826;BME280;11075;47.944;11.776;2023-01-28T00:51:16;95014.75;;;6.65;21.92
21826;BME280;11075;47.944;11.776;2023-01-28T00:53:43;95005.16;;;4.39;24.18
21826;BME280;11075;47.944;11.776;2023-01-28T00:56:15;95011.38;;;6.59;22.28
21826;BME280;11075;47.944;11.776;2023-01-28T00:58:43;95008.59;;;5.79;22.97
21826;BME280;11075;47.944;11.776;2023-01-28T01:03:41;95011.50;;;6.18;22.45
21826;BME280;11075;47.944;11.776;2023-01-28T01:06:09;95004.72;;;4.14;24.74
21826;BME280;11075;47.944;11.776;2023-01-28T01:08:37;95013.69;;;6.75;22.00
21826;BME280;11075;47.944;11.776;2023-01-28T01:11:10;95001.84;;;5.26;23.59
21826;BME280;11075;47.944;11.776;2023-01-28T01:13:37;95019.56;;;5.91;22.90
21826;BME280;11075;47.944;11.776;2023-01-28T01:16:14;95009.44;;;4.73;23.77
21826;BME280;11075;47.944;11.776;2023-01-28T01:18:47;95009.13;;;5.07;23.76
21826;BME280;11075;47.944;11.776;2023-01-28T01:21:16;95005.28;;;3.92;24.78
21826;BME280;11075;47.944;11.776;2023-01-28T01:23:44;95012.72;;;5.44;23.05
21826;BME280;11075;47.944;11.776;2023-01-28T01:26:12;95015.13;;;5.86;22.33
21826;BME280;11075;47.944;11.776;2023-01-28T01:28:40;95008.81;;;6.18;22.02
21826;BME280;11075;47.944;11.776;2023-01-28T01:31:10;95014.41;;;6.44;22.24
21826;BME280;11075;47.944;11.776;2023-01-28T01:33:41;95009.44;;;5.19;23.01
21826;BME280;11075;47.944;11.776;2023-01-28T01:36:10;94996.94;;;4.36;24.36
21826;BME280;11075;47.944;11.776;2023-01-28T01:38:37;95004.81;;;5.39;23.41
21826;BME280;11075;47.944;11.776;2023-01-28T01:41:05;95015.00;;;4.77;23.46
21826;BME280;11075;47.944;11.776;2023-01-28T01:43:52;95019.50;;;6.32;22.36
21826;BME280;11075;47.944;11.776;2023-01-28T01:49:05;95021.47;;;4.89;23.57
21826;BME280;11075;47.944;11.776;2023-01-28T01:51:33;95019.66;;;5.31;23.61
21826;BME280;11075;47.944;11.776;2023-01-28T01:54:01;95013.84;;;3.70;24.75
21826;BME280;11075;47.944;11.776;2023-01-28T01:56:34;95016.25;;;4.65;23.65
21826;BME280;11075;47.944;11.776;2023-01-28T01:59:02;95031.47;;;5.85;22.51
21826;BME280;11075;47.944;11.776;2023-01-28T02:01:31;95022.50;;;4.75;23.49
21826;BME280;11075;47.944;11.776;2023-01-28T02:04:05;95026.75;;;4.76;23.68
21826;BME280;11075;47.944;11.776;2023-01-28T02:06:35;95024.78;;;5.27;23.10
21826;BME280;11075;47.944;11.776;2023-01-28T02:09:06;95024.94;;;3.53;24.92
21826;BME280;11075;47.944;11.776;2023-01-28T02:11:33;95007.53;;;1.62;27.98
21826;BME280;11075;47.944;11.776;2023-01-28T02:14:02;95017.69;;;4.39;24.43
21826;BME280;11075;47.944;11.776;2023-01-28T02:16:30;95012.16;;;4.17;24.38
21826;BME280;11075;47.944;11.776;2023-01-28T02:18:58;95017.97;;;5.21;23.34
21826;BME280;11075;47.944;11.776;2023-01-28T02:32:04;95036.03;;;5.57;22.72
21826;BME280;11075;47.944;11.776;2023-01-28T02:34:42;95021.94;;;2.78;25.95
21826;BME280;11075;47.944;11.776;2023-01-28T02:39:47;95031.72;;;3.88;24.38
21826;BME280;11075;47.944;11.776;2023-01-28T02:42:24;95028.56;;;3.86;24.81
21826;BME280;11075;47.944;11.776;2023-01-28T02:44:52;95018.50;;;2.77;26.04
21826;BME280;11075;47.944;11.776;2023-01-28T02:47:19;95016.44;;;3.51;24.77
21826;BME280;11075;47.944;11.776;2023-01-28T02:50:09;95023.72;;;2.54;25.99
21826;BME280;11075;47.944;11.776;2023-01-28T03:00:50;95025.38;;;2.84;25.71
21826;BME280;11075;47.944;11.776;2023-01-28T03:03:28;95034.19;;;4.03;24.32
21826;BME280;11075;47.944;11.776;2023-01-28T03:06:06;95039.84;;;5.51;22.97
21826;BME280;11075;47.944;11.776;2023-01-28T03:08:39;95053.13;;;7.27;20.90
21826;BME280;11075;47.944;11.776;2023-01-28T03:11:26;95054.47;;;5.26;22.64
21826;BME280;11075;47.944;11.776;2023-01-28T03:14:15;95042.44;;;3.59;24.50
21826;BME280;11075;47.944;11.776;2023-01-28T03:17:02;95052.38;;;4.20;23.48
21826;BME280;11075;47.944;11.776;2023-01-28T03:19:52;95032.03;;;1.28;27.78
21826;BME280;11075;47.944;11.776;2023-01-28T03:22:40;95037.22;;;2.67;26.11
21826;BME280;11075;47.944;11.776;2023-01-28T03:25:33;95043.72;;;4.66;23.78
21826;BME280;11075;47.944;11.776;2023-01-28T03:28:20;95050.31;;;6.43;21.64
21826;BME280;11075;47.944;11.776;2023-01-28T03:31:12;95062.47;;;3.57;24.12
21826;BME280;11075;47.944;11.776;2023-01-28T03:34:00;95039.78;;;1.04;27.51
21826;BME280;11075;47.944;11.776;2023-01-28T03:36:47;95044.56;;;3.86;24.75
21826;BME280;11075;47.944;11.776;2023-01-28T03:39:39;95045.19;;;4.91;23.73
21826;BME280;11075;47.944;11.776;2023-01-28T03:42:11;95050.81;;;3.77;24.44
21826;BME280;11075;47.944;11.776;2023-01-28T03:44:53;95057.84;;;4.85;23.18
21826;BME280;11075;47.944;11.776;2023-01-28T03:47:23;95064.22;;;6.18;21.74
21826;BME280;11075;47.944;11.776;2023-01-28T03:49:52;95062.97;;;5.60;23.12
21826;BME280;11075;47.944;11.776;2023-01-28T03:52:39;95065.78;;;4.34;23.46
21826;BME280;11075;47.944;11.776;2023-01-28T03:55:32;95069.03;;;4.68;23.38
21826;BME280;11075;47.944;11.776;2023-01-28T03:57:59;95065.22;;;5.53;22.47
21826;BME280;11075;47.944;11.776;2023-01-28T04:00:26;95051.56;;;3.53;24.60
21826;BME280;11075;47.944;11.776;2023-01-28T04:02:54;95060.94;;;4.55;23.86
21826;BME280;11075;47.944;11.776;2023-01-28T04:05:21;95056.09;;;3.53;24.70
21826;BME280;11075;47.944;11.776;2023-01-28T04:07:53;95070.94;;;6.29;22.04
21826;BME280;11075;47.944;11.776;2023-01-28T04:10:34;95068.94;;;2.93;24.96
21826;BME280;11075;47.944;11.776;2023-01-28T04:13:07;95048.94;;;2.61;25.95
21826;BME280;11075;47.944;11.776;2023-01-28T04:15:37;95042.94;;;3.14;25.73
21826;BME280;11075;47.944;11.776;2023-01-28T04:18:04;95066.44;;;5.61;22.53
21826;BME280;11075;47.944;11.776;2023-01-28T04:20:33;95064.13;;;4.38;23.71
21826;BME280;11075;47.944;11.776;2023-01-28T04:23:00;95064.78;;;4.30;24.24
21826;BME280;11075;47.944;11.776;2023-01-28T04:25:28;95072.38;;;3.99;24.11
21826;BME280;11075;47.944;11.776;2023-01-28T04:27:56;95081.09;;;5.77;22.15
21826;BME280;11075;47.944;11.776;2023-01-28T04:30:25;95081.28;;;5.21;23.29
21826;BME280;11075;47.944;11.776;2023-01-28T04:33:24;95070.72;;;4.64;23.55
21826;BME280;11075;47.944;11.776;2023-01-28T04:35:51;95084.41;;;5.09;22.88
21826;BME280;11075;47.944;11.776;2023-01-28T04:38:33;95085.53;;;5.22;23.01
21826;BME280;11075;47.944;11.776;2023-01-28T04:41:38;95086.94;;;2.72;25.54
21826;BME280;11075;47.944;11.776;2023-01-28T04:44:13;95099.81;;;4.98;22.99
21826;BME280;11075;47.944;11.776;2023-01-28T04:47:00;95096.47;;;4.13;23.98
21826;BME280;11075;47.944;11.776;2023-01-28T04:49:39;95103.06;;;6.02;22.40
21826;BME280;11075;47.944;11.776;2023-01-28T04:52:30;95097.47;;;5.43;23.03
21826;BME280;11075;47.944;11.776;2023-01-28T04:55:15;95112.03;;;6.96;21.13
21826;BME280;11075;47.944;11.776;2023-01-28T04:57:45;95113.75;;;5.60;22.19
21826;BME280;11075;47.944;11.776;2023-01-28T05:00:13;95103.84;;;4.21;23.64
21826;BME280;11075;47.944;11.776;2023-01-28T05:02:41;95111.28;;;6.19;22.07
21826;BME280;11075;47.944;11.776;2023-01-28T05:05:07;95118.34;;;6.01;21.92
21826;BME280;11075;47.944;11.776;2023-01-28T05:07:56;95119.94;;;4.53;23.21
21826;BME280;11075;47.944;11.776;2023-01-28T05:10:24;95114.16;;;5.81;22.34
21826;BME280;11075;47.944;11.776;2023-01-28T05:12:53;95113.72;;;4.63;23.67
21826;BME280;11075;47.944;11.776;2023-01-28T05:15:20;95117.47;;;4.19;23.56
21826;BME280;11075;47.944;11.776;2023-01-28T05:17:47;95124.06;;;6.49;21.73
21826;BME280;11075;47.944;11.776;2023-01-28T05:20:18;95130.81;;;6.19;21.91
21826;BME280;11075;47.944;11.776;2023-01-28T05:22:47;95135.22;;;6.65;21.47
21826;BME280;11075;47.944;11.776;2023-01-28T05:25:40;95125.06;;;5.85;22.28
21826;BME280;11075;47.944;11.776;2023-01-28T05:28:07;95135.38;;;5.91;22.34
21826;BME280;11075;47.944;11.776;2023-01-28T05:30:36;95130.28;;;4.17;23.43
21826;BME280;11075;47.944;11.776;2023-01-28T05:33:04;95119.00;;;4.44;24.06
21826;BME280;11075;47.944;11.776;2023-01-28T05:35:31;95138.44;;;6.40;21.77
21826;BME280;11075;47.944;11.776;2023-01-28T05:37:58;95132.84;;;5.21;22.12
21826;BME280;11075;47.944;11.776;2023-01-28T05:40:25;95140.50;;;5.42;22.85
21826;BME280;11075;47.944;11.776;2023-01-28T05:42:52;95135.78;;;6.12;21.99
21826;BME280;11075;47.944;11.776;2023-01-28T05:45:30;95134.09;;;5.10;23.14
21826;BME280;11075;47.944;11.776;2023-01-28T05:48:04;95135.25;;;4.48;23.99
21826;BME280;11075;47.944;11.776;2023-01-28T05:50:54;95157.75;;;6.23;21.63
21826;BME280;11075;47.944;11.776;2023-01-28T05:53:30;95154.78;;;6.24;21.99
21826;BME280;11075;47.944;11.776;2023-01-28T05:55:57;95157.16;;;6.26;21.71
21826;BME280;11075;47.944;11.776;2023-01-28T05:58:25;95155.16;;;5.77;22.45
21826;BME280;11075;47.944;11.776;2023-01-28T06:00:58;95154.59;;;5.15;23.05
21826;BME280;11075;47.944;11.776;2023-01-28T06:03:34;95164.84;;;5.59;22.33
21826;BME280;11075;47.944;11.776;2023-01-28T06:06:01;95156.59;;;5.23;23.01
21826;BME280;11075;47.944;11.776;2023-01-28T06:08:29;95160.03;;;2.35;25.43
21826;BME280;11075;47.944;11.776;2023-01-28T06:10:57;95167.47;;;6.32;21.83
21826;BME280;11075;47.944;11.776;2023-01-28T06:13:24;95170.13;;;5.91;22.39
21826;BME280;11075;47.944;11.776;2023-01-28T06:16:21;95170.31;;;5.67;22.37
21826;BME280;11075;47.944;11.776;2023-01-28T06:19:07;95176.84;;;5.75;21.83
21826;BME280;11075;47.944;11.776;2023-01-28T06:21:33;95184.47;;;7.27;21.00
21826;BME280;11075;47.944;11.776;2023-01-28T06:24:01;95183.69;;;6.77;21.22
21826;BME280;11075;47.944;11.776;2023-01-28T06:26:29;95186.34;;;6.91;21.10
21826;BME280;11075;47.944;11.776;2023-01-28T06:28:56;95185.59;;;7.13;20.98
21826;BME280;11075;47.944;11.776;2023-01-28T06:31:23;95196.13;;;6.73;21.17
21826;BME280;11075;47.944;11.776;2023-01-28T06:33:50;95192.50;;;6.91;21.27
21826;BME280;11075;47.944;11.776;2023-01-28T06:36:17;95197.50;;;5.56;22.47
21826;BME280;11075;47.944;11.776;2023-01-28T06:38:44;95200.22;;;6.43;21.37
21826;BME280;11075;47.944;11.776;2023-01-28T06:41:10;95199.63;;;6.46;21.39
21826;BME280;11075;47.944;11.776;2023-01-28T06:43:37;95198.78;;;6.05;21.90
21826;BME280;11075;47.944;11.776;2023-01-28T06:46:04;95202.38;;;6.14;21.87
21826;BME280;11075;47.944;11.776;2023-01-28T06:48:31;95197.63;;;5.46;22.94
21826;BME280;11075;47.944;11.776;2023-01-28T06:50:58;95207.91;;;6.86;21.22
21826;BME280;11075;47.944;11.776;2023-01-28T06:53:25;95203.16;;;6.28;21.99
21826;BME280;11075;47.944;11.776;2023-01-28T06:55:52;95201.13;;;5.79;22.46
21826;BME280;11075;47.944;11.776;2023-01-28T06:58:19;95202.34;;;6.00;22.47
21826;BME280;11075;47.944;11.776;2023-01-28T07:00:46;95210.41;;;6.69;21.52
21826;BME280;11075;47.944;11.776;2023-01-28T07:03:13;95208.53;;;6.55;21.43
21826;BME280;11075;47.944;11.776;2023-01-28T07:05:39;95212.44;;;5.89;21.93
21826;BME280;11075;47.944;11.776;2023-01-28T07:08:06;95213.16;;;6.22;21.96
21826;BME280;11075;47.944;11.776;2023-01-28T07:10:33;95206.97;;;4.06;24.07
21826;BME280;11075;47.944;11.776;2023-01-28T07:13:00;95215.06;;;6.36;21.94
21826;BME280;11075;47.944;11.776;2023-01-28T07:15:27;95220.78;;;6.84;21.26
21826;BME280;11075;47.944;11.776;2023-01-28T07:17:54;95226.91;;;6.98;21.17
21826;BME280;11075;47.944;11.776;2023-01-28T07:20:21;95222.91;;;7.09;21.02
21826;BME280;11075;47.944;11.776;2023-01-28T07:22:48;95232.22;;;7.25;20.73
21826;BME280;11075;47.944;11.776;2023-01-28T07:25:15;95240.09;;;5.98;21.91
21826;BME280;11075;47.944;11.776;2023-01-28T07:27:49;95232.97;;;4.67;23.08
21826;BME280;11075;47.944;11.776;2023-01-28T07:30:17;95237.28;;;6.50;21.55
21826;BME280;11075;47.944;11.776;2023-01-28T07:32:45;95225.47;;;5.45;22.58
21826;BME280;11075;47.944;11.776;2023-01-28T07:35:12;95237.16;;;5.67;22.32
21826;BME280;11075;47.944;11.776;2023-01-28T07:37:39;95238.38;;;6.62;21.36
21826;BME280;11075;47.944;11.776;2023-01-28T07:40:09;95239.63;;;6.38;21.62
21826;BME280;11075;47.944;11.776;2023-01-28T07:42:36;95244.00;;;6.33;22.02
21826;BME280;11075;47.944;11.776;2023-01-28T07:45:04;95234.38;;;5.21;22.58
21826;BME280;11075;47.944;11.776;2023-01-28T07:47:32;95245.47;;;5.66;22.78
21826;BME280;11075;47.944;11.776;2023-01-28T07:49:59;95240.94;;;5.29;22.95
21826;BME280;11075;47.944;11.776;2023-01-28T07:52:26;95253.78;;;5.27;23.01
21826;BME280;11075;47.944;11.776;2023-01-28T07:54:53;95242.44;;;4.79;23.85
21826;BME280;11075;47.944;11.776;2023-01-28T07:57:19;95259.16;;;6.24;22.10
21826;BME280;11075;47.944;11.776;2023-01-28T07:59:49;95250.97;;;5.18;22.71
21826;BME280;11075;47.944;11.776;2023-01-28T08:02:17;95251.97;;;5.60;22.48
21826;BME280;11075;47.944;11.776;2023-01-28T08:04:45;95267.19;;;6.38;21.89
21826;BME280;11075;47.944;11.776;2023-01-28T08:07:13;95272.13;;;6.17;22.20
21826;BME280;11075;47.944;11.776;2023-01-28T08:09:39;95259.03;;;4.94;23.75
21826;BME280;11075;47.944;11.776;2023-01-28T08:12:06;95258.75;;;4.77;23.50
21826;BME280;11075;47.944;11.776;2023-01-28T08:14:33;95254.69;;;2.41;25.95
21826;BME280;11075;47.944;11.776;2023-01-28T08:17:00;95256.22;;;5.93;22.58
21826;BME280;11075;47.944;11.776;2023-01-28T08:19:27;95252.13;;;5.12;23.04
21826;BME280;11075;47.944;11.776;2023-01-28T08:21:54;95271.25;;;6.36;21.79
21826;BME280;11075;47.944;11.776;2023-01-28T08:24:21;95283.59;;;6.91;21.52
21826;BME280;11075;47.944;11.776;2023-01-28T08:26:48;95283.22;;;5.78;22.48
21826;BME280;11075;47.944;11.776;2023-01-28T08:29:15;95288.31;;;4.81;23.21
21826;BME280;11075;47.944;11.776;2023-01-28T08:31:41;95276.31;;;5.40;23.38
21826;BME280;11075;47.944;11.776;2023-01-28T08:34:08;95286.25;;;4.96;23.30
21826;BME280;11075;47.944;11.776;2023-01-28T08:36:35;95296.13;;;5.57;22.30
21826;BME280;11075;47.944;11.776;2023-01-28T08:39:02;95294.34;;;6.31;21.98
21826;BME280;11075;47.944;11.776;2023-01-28T08:41:29;95302.94;;;6.75;21.48
21826;BME280;11075;47.944;11.776;2023-01-28T08:43:56;95289.88;;;5.06;23.55
21826;BME280;11075;47.944;11.776;2023-01-28T08:46:23;95295.16;;;5.48;22.61
21826;BME280;11075;47.944;11.776;2023-01-28T08:48:50;95297.81;;;6.18;22.68
21826;BME280;11075;47.944;11.776;2023-01-28T08:51:17;95306.50;;;6.84;21.85
21826;BME280;11075;47.944;11.776;2023-01-28T08:53:44;95302.75;;;5.79;22.71
21826;BME280;11075;47.944;11.776;2023-01-28T08:56:11;95296.94;;;4.49;24.32
21826;BME280;11075;47.944;11.776;2023-01-28T08:58:38;95299.84;;;4.52;23.82
21826;BME280;11075;47.944;11.776;2023-01-28T09:01:05;95306.06;;;4.19;23.99
21826;BME280;11075;47.944;11.776;2023-01-28T09:03:33;95304.03;;;5.06;23.28
21826;BME280;11075;47.944;11.776;2023-01-28T09:06:01;95289.59;;;1.99;26.70
21826;BME280;11075;47.944;11.776;2023-01-28T09:08:28;95299.19;;;5.08;23.63
21826;BME280;11075;47.944;11.776;2023-01-28T09:10:56;95303.75;;;5.26;22.95
21826;BME280;11075;47.944;11.776;2023-01-28T09:13:24;95310.59;;;4.71;23.72
21826;BME280;11075;47.944;11.776;2023-01-28T09:15:51;95306.34;;;5.13;23.68
21826;BME280;11075;47.944;11.776;2023-01-28T09:18:19;95313.47;;;5.92;22.01
21826;BME280;11075;47.944;11.776;2023-01-28T09:20:45;95321.50;;;6.71;21.62
21826;BME280;11075;47.944;11.776;2023-01-28T09:23:13;95326.44;;;6.64;21.45
21826;BME280;11075;47.944;11.776;2023-01-28T09:25:40;95312.09;;;6.27;22.30
21826;BME280;11075;47.944;11.776;2023-01-28T09:28:07;95308.13;;;5.60;22.73
21826;BME280;11075;47.944;11.776;2023-01-28T09:30:34;95309.53;;;6.36;21.93
21826;BME280;11075;47.944;11.776;2023-01-28T09:33:03;95316.66;;;6.27;22.01
21826;BME280;11075;47.944;11.776;2023-01-28T09:35:30;95312.38;;;5.61;22.69
21826;BME280;11075;47.944;11.776;2023-01-28T09:37:57;95294.50;;;5.00;24.21
21826;BME280;11075;47.944;11.776;2023-01-28T09:40:36;95320.31;;;6.77;21.37
21826;BME280;11075;47.944;11.776;2023-01-28T09:46:02;95318.59;;;6.40;22.11
21826;BME280;11075;47.944;11.776;2023-01-28T09:48:40;95321.19;;;6.73;21.62
21826;BME280;11075;47.944;11.776;2023-01-28T09:51:27;95323.16;;;7.08;20.96
21826;BME280;11075;47.944;11.776;2023-01-28T09:54:02;95322.31;;;7.49;20.92
21826;BME280;11075;47.944;11.776;2023-01-28T09:56:34;95312.44;;;6.94;21.77
21826;BME280;11075;47.944;11.776;2023-01-28T09:59:18;95320.94;;;7.74;20.82
21826;BME280;11075;47.944;11.776;2023-01-28T10:02:48;95318.03;;;6.84;21.55
21826;BME280;11075;47.944;11.776;2023-01-28T10:05:09;95310.78;;;7.84;20.87
21826;BME280;11075;47.944;11.776;2023-01-28T10:08:04;95312.66;;;6.84;21.56
21826;BME280;11075;47.944;11.776;2023-01-28T10:13:47;95306.75;;;7.73;20.62
21826;BME280;11075;47.944;11.776;2023-01-28T10:16:41;95317.00;;;7.93;20.27
21826;BME280;11075;47.944;11.776;2023-01-28T10:19:22;95307.78;;;7.27;21.08
21826;BME280;11075;47.944;11.776;2023-01-28T10:22:05;95314.44;;;6.61;21.94
21826;BME280;11075;47.944;11.776;2023-01-28T10:24:36;95310.56;;;7.58;21.08
21826;BME280;11075;47.944;11.776;2023-01-28T10:27:20;95295.53;;;7.71;21.74
21826;BME280;11075;47.944;11.776;2023-01-28T10:29:49;95301.84;;;6.76;21.96
21826;BME280;11075;47.944;11.776;2023-01-28T10:32:33;95307.41;;;6.66;21.76
21826;BME280;11075;47.944;11.776;2023-01-28T10:35:01;95291.06;;;7.67;21.02
21826;BME280;11075;47.944;11.776;2023-01-28T10:37:33;95278.69;;;6.25;22.54
21826;BME280;11075;47.944;11.776;2023-01-28T10:40:01;95297.34;;;7.84;20.83
21826;BME280;11075;47.944;11.776;2023-01-28T10:42:32;95296.13;;;7.68;21.24
21826;BME280;11075;47.944;11.776;2023-01-28T10:47:42;95293.69;;;7.58;21.20
21826;BME280;11075;47.944;11.776;2023-01-28T10:50:16;95297.72;;;7.19;21.85
21826;BME280;11075;47.944;11.776;2023-01-28T10:52:58;95301.91;;;8.99;20.06
21826;BME280;11075;47.944;11.776;2023-01-28T10:55:36;95306.19;;;9.00;19.75
21826;BME280;11075;47.944;11.776;2023-01-28T10:58:17;95304.19;;;9.40;19.36
21826;BME280;11075;47.944;11.776;2023-01-28T11:00:52;95304.34;;;8.39;20.47
21826;BME280;11075;47.944;11.776;2023-01-28T11:03:22;95303.00;;;8.90;19.99
21826;BME280;11075;47.944;11.776;2023-01-28T11:05:50;95291.56;;;5.58;23.00
21826;BME280;11075;47.944;11.776;2023-01-28T11:08:20;95293.13;;;8.76;19.87
21826;BME280;11075;47.944;11.776;2023-01-28T11:10:48;95282.78;;;7.54;21.29
21826;BME280;11075;47.944;11.776;2023-01-28T11:13:26;95296.59;;;8.06;20.57
21826;BME280;11075;47.944;11.776;2023-01-28T11:16:15;95293.56;;;8.30;20.62
21826;BME280;11075;47.944;11.776;2023-01-28T11:18:59;95296.94;;;7.69;21.15
21826;BME280;11075;47.944;11.776;2023-01-28T11:21:30;95300.31;;;8.59;20.13
21826;BME280;11075;47.944;11.776;2023-01-28T11:24:01;95311.75;;;8.33;20.23
21826;BME280;11075;47.944;11.776;2023-01-28T11:26:38;95294.28;;;7.55;21.22
21826;BME280;11075;47.944;11.776;2023-01-28T11:29:05;95305.31;;;7.04;21.46
21826;BME280;11075;47.944;11.776;2023-01-28T11:31:42;95310.50;;;8.39;20.42
21826;BME280;11075;47.944;11.776;2023-01-28T11:34:16;95306.84;;;7.46;20.90
21826;BME280;11075;47.944;11.776;2023-01-28T11:36:52;95310.59;;;8.96;19.69
21826;BME280;11075;47.944;11.776;2023-01-28T11:39:23;95306.63;;;9.59;19.46
21826;BME280;11075;47.944;11.776;2023-01-28T11:41:52;95307.72;;;8.84;20.14
21826;BME280;11075;47.944;11.776;2023-01-28T11:44:24;95308.38;;;7.83;21.16
21826;BME280;11075;47.944;11.776;2023-01-28T11:50:31;95312.81;;;7.43;21.03
21826;BME280;11075;47.944;11.776;2023-01-28T12:02:14;95306.31;;;8.55;20.31
21826;BME280;11075;47.944;11.776;2023-01-28T12:13:20;95302.03;;;6.93;21.83
21826;BME280;11075;47.944;11.776;2023-01-28T12:16:06;95300.25;;;6.88;22.05
21826;BME280;11075;47.944;11.776;2023-01-28T12:21:44;95304.16;;;7.46;20.82
21826;BME280;11075;47.944;11.776;2023-01-28T12:24:37;95302.25;;;5.58;22.86
21826;BME280;11075;47.944;11.776;2023-01-28T12:32:58;95281.44;;;3.64;25.14
21826;BME280;11075;47.944;11.776;2023-01-28T12:38:11;95305.59;;;7.88;20.67
21826;BME280;11075;47.944;11.776;2023-01-28T12:40:55;95290.88;;;5.85;23.13
21826;BME280;11075;47.944;11.776;2023-01-28T12:46:10;95279.66;;;4.70;23.79
21826;BME280;11075;47.944;11.776;2023-01-28T12:48:58;95295.00;;;4.54;23.97
21826;BME280;11075;47.944;11.776;2023-01-28T12:51:31;95280.63;;;3.29;25.43
21826;BME280;11075;47.944;11.776;2023-01-28T12:54:18;95306.94;;;8.83;20.29
21826;BME280;11075;47.944;11.776;2023-01-28T12:56:54;95304.91;;;6.83;22.14
21826;BME280;11075;47.944;11.776;2023-01-28T12:59:33;95303.63;;;7.57;20.99
21826;BME280;11075;47.944;11.776;2023-01-28T13:02:16;95301.72;;;7.22;21.36
21826;BME280;11075;47.944;11.776;2023-01-28T13:08:31;95303.28;;;5.94;22.45
21826;BME280;11075;47.944;11.776;2023-01-28T13:10:42;95300.56;;;5.06;23.25
21826;BME280;11075;47.944;11.776;2023-01-28T13:13:37;95292.63;;;5.00;23.64
21826;BME280;11075;47.944;11.776;2023-01-28T13:16:07;95294.13;;;4.64;24.22
21826;BME280;11075;47.944;11.776;2023-01-28T13:31:46;95287.66;;;4.70;24.87
21826;BME280;11075;47.944;11.776;2023-01-28T13:37:03;95305.03;;;6.18;23.39
21826;BME280;11075;47.944;11.776;2023-01-28T13:39:33;95317.94;;;7.53;21.72
21826;BME280;11075;47.944;11.776;2023-01-28T13:42:19;95300.78;;;4.37;25.16
21826;BME280;11075;47.944;11.776;2023-01-28T13:44:48;95303.69;;;5.69;23.92
21826;BME280;11075;47.944;11.776;2023-01-28T13:47:22;95313.16;;;6.73;22.90
21826;BME280;11075;47.944;11.776;2023-01-28T13:49:56;95306.13;;;4.37;24.88
21826;BME280;11075;47.944;11.776;2023-01-28T13:52:25;95306.09;;;5.52;23.76
21826;BME280;11075;47.944;11.776;2023-01-28T13:55:26;95331.59;;;8.54;20.71
21826;BME280;11075;47.944;11.776;2023-01-28T13:58:28;95327.44;;;8.17;21.38
21826;BME280;11075;47.944;11.776;2023-01-28T14:04:12;95334.03;;;7.53;21.78
21826;BME280;11075;47.944;11.776;2023-01-28T14:09:41;95336.00;;;7.61;21.84
21826;BME280;11075;47.944;11.776;2023-01-28T14:12:14;95335.97;;;6.98;22.41
21826;BME280;11075;47.944;11.776;2023-01-28T14:20:31;95341.28;;;6.43;22.93
21826;BME280;11075;47.944;11.776;2023-01-28T14:23:05;95354.22;;;8.62;20.89
21826;BME280;11075;47.944;11.776;2023-01-28T14:31:27;95360.06;;;8.11;20.97
21826;BME280;11075;47.944;11.776;2023-01-28T14:34:21;95358.09;;;6.89;22.11
21826;BME280;11075;47.944;11.776;2023-01-28T14:36:52;95361.75;;;5.26;23.20
21826;BME280;11075;47.944;11.776;2023-01-28T14:39:25;95344.00;;;2.63;26.48
21826;BME280;11075;47.944;11.776;2023-01-28T14:41:55;95338.16;;;4.08;25.44
21826;BME280;11075;47.944;11.776;2023-01-28T14:44:37;95352.84;;;4.35;24.92
21826;BME280;11075;47.944;11.776;2023-01-28T14:47:46;95342.72;;;2.40;26.91
21826;BME280;11075;47.944;11.776;2023-01-28T14:53:00;95349.63;;;6.55;22.51
21826;BME280;11075;47.944;11.776;2023-01-28T14:58:58;95363.94;;;5.43;23.71
21826;BME280;11075;47.944;11.776;2023-01-28T15:01:19;95382.41;;;6.93;22.06
21826;BME280;11075;47.944;11.776;2023-01-28T15:03:47;95380.19;;;7.64;21.29
21826;BME280;11075;47.944;11.776;2023-01-28T15:06:16;95386.06;;;8.24;20.74
21826;BME280;11075;47.944;11.776;2023-01-28T15:08:44;95388.94;;;6.87;22.12
21826;BME280;11075;47.944;11.776;2023-01-28T15:11:14;95394.38;;;6.54;21.86
21826;BME280;11075;47.944;11.776;2023-01-28T15:13:56;95381.50;;;7.88;21.01
21826;BME280;11075;47.944;11.776;2023-01-28T15:16:26;95402.34;;;8.50;20.52
21826;BME280;11075;47.944;11.776;2023-01-28T15:18:55;95391.06;;;7.31;21.91
21826;BME280;11075;47.944;11.776;2023-01-28T15:21:24;95403.84;;;8.87;20.27
21826;BME280;11075;47.944;11.776;2023-01-28T15:23:59;95405.66;;;8.78;20.35